sensor_id;sensor_type;location;lat;lon;timestamp;temperature;humidity
23271;DHT22;11804;51.118;17.058;2022-12-07T00:01:45;3.30;99.90
23271;DHT22;11804;51.118;17.058;2022-12-07T00:04:16;3.30;99.90
23271;DHT22;11804;51.118;17.058;2022-12-07T00:06:49;3.40;99.90
23271;DHT22;11804;51.118;17.058;2022-12-07T00:09:18;3.30;99.90
23271;DHT22;11804;51.118;17.058;2022-12-07T00:11:50;3.30;99.90
23271;DHT22;11804;51.118;17.058;2022-12-07T00:14:19;3.30;99.90
23271;DHT22;11804;51.118;17.058;2022-12-07T00:16:48;3.30;99.90
23271;DHT22;11804;51.118;17.058;2022-12-07T00:19:18;3.20;99.90
23271;DHT22;11804;51.118;17.058;2022-12-07T00:21:46;3.30;99.90
23271;DHT22;11804;51.118;17.058;2022-12-07T00:24:14;3.30;99.90
23271;DHT22;11804;51.118;17.058;2022-12-07T00:26:44;3.30;99.90
23271;DHT22;11804;51.118;17.058;2022-12-07T00:29:21;3.20;99.90
23271;DHT22;11804;51.118;17.058;2022-12-07T00:31:51;3.30;99.90
23271;DHT22;11804;51.118;17.058;2022-12-07T00:34:22;3.20;99.90
23271;DHT22;11804;51.118;17.058;2022-12-07T00:36:50;3.30;99.90
23271;DHT22;11804;51.118;17.058;2022-12-07T00:39:18;3.30;99.90
23271;DHT22;11804;51.118;17.058;2022-12-07T00:41:45;3.20;99.90
23271;DHT22;11804;51.118;17.058;2022-12-07T00:44:16;3.20;99.90
23271;DHT22;11804;51.118;17.058;2022-12-07T00:46:43;3.20;99.90
23271;DHT22;11804;51.118;17.058;2022-12-07T00:49:17;3.30;99.90
23271;DHT22;11804;51.118;17.058;2022-12-07T00:51:41;3.30;99.90
23271;DHT22;11804;51.118;17.058;2022-12-07T00:54:09;3.20;99.90
23271;DHT22;11804;51.118;17.058;2022-12-07T00:56:36;3.30;99.90
23271;DHT22;11804;51.118;17.058;2022-12-07T00:59:04;3.30;99.90
23271;DHT22;11804;51.118;17.058;2022-12-07T01:01:34;3.20;99.90
23271;DHT22;11804;51.118;17.058;2022-12-07T01:04:04;3.20;99.90
23271;DHT22;11804;51.118;17.058;2022-12-07T01:06:32;3.30;99.90
23271;DHT22;11804;51.118;17.058;2022-12-07T01:09:01;3.20;99.90
23271;DHT22;11804;51.118;17.058;2022-12-07T01:11:30;3.20;99.90
23271;DHT22;11804;51.118;17.058;2022-12-07T01:14:02;3.20;99.90
23271;DHT22;11804;51.118;17.058;2022-12-07T01:16:32;3.20;99.90
23271;DHT22;11804;51.118;17.058;2022-12-07T01:19:02;3.20;99.90
23271;DHT22;11804;51.118;17.058;2022-12-07T01:21:37;3.20;99.90
23271;DHT22;11804;51.118;17.058;2022-12-07T01:24:05;3.20;99.90
23271;DHT22;11804;51.118;17.058;2022-12-07T01:26:33;3.20;99.90
23271;DHT22;11804;51.118;17.058;2022-12-07T01:29:01;3.20;99.90
23271;DHT22;11804;51.118;17.058;2022-12-07T01:31:29;3.10;99.90
23271;DHT22;11804;51.118;17.058;2022-12-07T01:33:58;3.20;99.90
23271;DHT22;11804;51.118;17.058;2022-12-07T01:36:33;3.10;99.90
23271;DHT22;11804;51.118;17.058;2022-12-07T01:39:04;3.20;99.90
23271;DHT22;11804;51.118;17.058;2022-12-07T01:41:35;3.10;99.90
23271;DHT22;11804;51.118;17.058;2022-12-07T01:46:45;3.10;99.90
23271;DHT22;11804;51.118;17.058;2022-12-07T01:49:26;3.20;99.90
23271;DHT22;11804;51.118;17.058;2022-12-07T01:51:45;3.20;99.90
23271;DHT22;11804;51.118;17.058;2022-12-07T01:54:15;3.10;99.90
23271;DHT22;11804;51.118;17.058;2022-12-07T01:56:47;3.20;99.90
23271;DHT22;11804;51.118;17.058;2022-12-07T01:59:17;3.10;99.90
23271;DHT22;11804;51.118;17.058;2022-12-07T02:01:44;3.10;99.90
23271;DHT22;11804;51.118;17.058;2022-12-07T02:04:12;3.10;99.90
23271;DHT22;11804;51.118;17.058;2022-12-07T02:06:41;3.10;99.90
23271;DHT22;11804;51.118;17.058;2022-12-07T02:09:10;3.10;99.90
23271;DHT22;11804;51.118;17.058;2022-12-07T02:11:39;3.10;99.90
23271;DHT22;11804;51.118;17.058;2022-12-07T02:14:08;3.10;99.90
23271;DHT22;11804;51.118;17.058;2022-12-07T02:16:47;3.10;99.90
23271;DHT22;11804;51.118;17.058;2022-12-07T02:19:50;3.10;99.90
23271;DHT22;11804;51.118;17.058;2022-12-07T02:25:13;3.10;99.90
23271;DHT22;11804;51.118;17.058;2022-12-07T02:30:31;3.00;99.90
23271;DHT22;11804;51.118;17.058;2022-12-07T02:33:14;3.00;99.90
23271;DHT22;11804;51.118;17.058;2022-12-07T02:35:55;3.00;99.90
23271;DHT22;11804;51.118;17.058;2022-12-07T02:41:16;2.90;99.90
23271;DHT22;11804;51.118;17.058;2022-12-07T02:43:47;2.90;99.90
23271;DHT22;11804;51.118;17.058;2022-12-07T02:46:25;2.90;99.90
23271;DHT22;11804;51.118;17.058;2022-12-07T02:48:54;2.90;99.90
23271;DHT22;11804;51.118;17.058;2022-12-07T02:51:25;3.00;99.90
23271;DHT22;11804;51.118;17.058;2022-12-07T02:53:59;2.90;99.90
23271;DHT22;11804;51.118;17.058;2022-12-07T02:56:32;2.90;99.90
23271;DHT22;11804;51.118;17.058;2022-12-07T03:04:57;2.80;99.90
23271;DHT22;11804;51.118;17.058;2022-12-07T03:07:33;2.80;99.90
23271;DHT22;11804;51.118;17.058;2022-12-07T03:10:06;2.90;99.90
23271;DHT22;11804;51.118;17.058;2022-12-07T03:12:56;2.90;99.90
23271;DHT22;11804;51.118;17.058;2022-12-07T03:15:26;2.80;99.90
23271;DHT22;11804;51.118;17.058;2022-12-07T03:17:53;2.80;99.90
23271;DHT22;11804;51.118;17.058;2022-12-07T03:20:25;2.90;99.90
23271;DHT22;11804;51.118;17.058;2022-12-07T03:22:54;2.80;99.90
23271;DHT22;11804;51.118;17.058;2022-12-07T03:25:26;2.80;99.90
23271;DHT22;11804;51.118;17.058;2022-12-07T03:27:57;2.90;99.90
23271;DHT22;11804;51.118;17.058;2022-12-07T03:30:30;2.90;99.90
23271;DHT22;11804;51.118;17.058;2022-12-07T03:33:19;2.80;99.90
23271;DHT22;11804;51.118;17.058;2022-12-07T03:36:08;2.90;99.90
23271;DHT22;11804;51.118;17.058;2022-12-07T03:38:41;2.90;99.90
23271;DHT22;11804;51.118;17.058;2022-12-07T03:41:19;2.90;99.90
23271;DHT22;11804;51.118;17.058;2022-12-07T03:43:50;2.90;99.90
23271;DHT22;11804;51.118;17.058;2022-12-07T03:46:42;2.90;99.90
23271;DHT22;11804;51.118;17.058;2022-12-07T03:49:22;2.80;99.90
23271;DHT22;11804;51.118;17.058;2022-12-07T03:52:11;2.90;99.90
23271;DHT22;11804;51.118;17.058;2022-12-07T03:54:59;2.80;99.90
23271;DHT22;11804;51.118;17.058;2022-12-07T03:57:18;2.80;99.90
23271;DHT22;11804;51.118;17.058;2022-12-07T03:59:47;2.90;99.90
23271;DHT22;11804;51.118;17.058;2022-12-07T04:02:15;2.80;99.90
23271;DHT22;11804;51.118;17.058;2022-12-07T04:04:50;2.90;99.90
23271;DHT22;11804;51.118;17.058;2022-12-07T04:07:30;2.90;99.90
23271;DHT22;11804;51.118;17.058;2022-12-07T04:09:56;2.90;99.90
23271;DHT22;11804;51.118;17.058;2022-12-07T04:12:29;3.00;99.90
23271;DHT22;11804;51.118;17.058;2022-12-07T04:14:56;2.90;99.90
23271;DHT22;11804;51.118;17.058;2022-12-07T04:17:36;3.00;99.90
23271;DHT22;11804;51.118;17.058;2022-12-07T04:20:04;2.90;99.90
23271;DHT22;11804;51.118;17.058;2022-12-07T04:22:28;2.90;99.90
23271;DHT22;11804;51.118;17.058;2022-12-07T04:25:00;2.90;99.90
23271;DHT22;11804;51.118;17.058;2022-12-07T04:27:27;3.00;99.90
23271;DHT22;11804;51.118;17.058;2022-12-07T04:29:55;3.00;99.90
23271;DHT22;11804;51.118;17.058;2022-12-07T04:32:27;2.90;99.90
23271;DHT22;11804;51.118;17.058;2022-12-07T04:35:00;2.90;99.90
23271;DHT22;11804;51.118;17.058;2022-12-07T04:37:34;2.90;99.90
23271;DHT22;11804;51.118;17.058;2022-12-07T04:40:00;2.90;99.90
23271;DHT22;11804;51.118;17.058;2022-12-07T04:42:28;2.80;99.90
23271;DHT22;11804;51.118;17.058;2022-12-07T04:44:56;2.90;99.90
23271;DHT22;11804;51.118;17.058;2022-12-07T04:47:32;2.80;99.90
23271;DHT22;11804;51.118;17.058;2022-12-07T04:50:02;2.80;99.90
23271;DHT22;11804;51.118;17.058;2022-12-07T04:52:30;2.80;99.90
23271;DHT22;11804;51.118;17.058;2022-12-07T04:54:57;2.80;99.90
23271;DHT22;11804;51.118;17.058;2022-12-07T04:57:25;2.80;99.90
23271;DHT22;11804;51.118;17.058;2022-12-07T04:59:55;2.70;99.90
23271;DHT22;11804;51.118;17.058;2022-12-07T05:02:23;2.80;99.90
23271;DHT22;11804;51.118;17.058;2022-12-07T05:04:51;2.80;99.90
23271;DHT22;11804;51.118;17.058;2022-12-07T05:07:18;2.70;99.90
23271;DHT22;11804;51.118;17.058;2022-12-07T05:09:46;2.70;99.90
23271;DHT22;11804;51.118;17.058;2022-12-07T05:14:50;2.80;99.90
23271;DHT22;11804;51.118;17.058;2022-12-07T05:17:18;2.80;99.90
23271;DHT22;11804;51.118;17.058;2022-12-07T05:19:49;2.80;99.90
23271;DHT22;11804;51.118;17.058;2022-12-07T05:22:21;2.80;99.90
23271;DHT22;11804;51.118;17.058;2022-12-07T05:24:49;2.80;99.90
23271;DHT22;11804;51.118;17.058;2022-12-07T05:27:16;2.80;99.90
23271;DHT22;11804;51.118;17.058;2022-12-07T05:29:47;2.90;99.90
23271;DHT22;11804;51.118;17.058;2022-12-07T05:32:20;2.80;99.90
23271;DHT22;11804;51.118;17.058;2022-12-07T05:34:49;2.90;99.90
23271;DHT22;11804;51.118;17.058;2022-12-07T05:37:20;2.90;99.90
23271;DHT22;11804;51.118;17.058;2022-12-07T05:39:47;2.90;99.90
23271;DHT22;11804;51.118;17.058;2022-12-07T05:42:19;2.90;99.90
23271;DHT22;11804;51.118;17.058;2022-12-07T05:44:50;2.90;99.90
23271;DHT22;11804;51.118;17.058;2022-12-07T05:47:18;2.90;99.90
23271;DHT22;11804;51.118;17.058;2022-12-07T05:49:46;2.90;99.90
23271;DHT22;11804;51.118;17.058;2022-12-07T05:52:19;3.00;99.90
23271;DHT22;11804;51.118;17.058;2022-12-07T05:54:46;3.00;99.90
23271;DHT22;11804;51.118;17.058;2022-12-07T05:57:15;2.90;99.90
23271;DHT22;11804;51.118;17.058;2022-12-07T05:59:43;3.00;99.90
23271;DHT22;11804;51.118;17.058;2022-12-07T06:02:14;3.00;99.90
23271;DHT22;11804;51.118;17.058;2022-12-07T06:04:50;2.90;99.90
23271;DHT22;11804;51.118;17.058;2022-12-07T06:07:23;2.90;99.90
23271;DHT22;11804;51.118;17.058;2022-12-07T06:10:00;2.90;99.90
23271;DHT22;11804;51.118;17.058;2022-12-07T06:12:28;3.00;99.90
23271;DHT22;11804;51.118;17.058;2022-12-07T06:15:01;3.00;99.90
23271;DHT22;11804;51.118;17.058;2022-12-07T06:17:29;3.00;99.90
23271;DHT22;11804;51.118;17.058;2022-12-07T06:20:04;3.00;99.90
23271;DHT22;11804;51.118;17.058;2022-12-07T06:22:30;2.90;99.90
23271;DHT22;11804;51.118;17.058;2022-12-07T06:24:58;2.90;99.90
23271;DHT22;11804;51.118;17.058;2022-12-07T06:27:26;3.00;99.90
23271;DHT22;11804;51.118;17.058;2022-12-07T06:29:53;2.90;99.90
23271;DHT22;11804;51.118;17.058;2022-12-07T06:32:21;3.00;99.90
23271;DHT22;11804;51.118;17.058;2022-12-07T06:34:53;2.90;99.90
23271;DHT22;11804;51.118;17.058;2022-12-07T06:37:23;2.90;99.90
23271;DHT22;11804;51.118;17.058;2022-12-07T06:39:51;3.00;99.90
23271;DHT22;11804;51.118;17.058;2022-12-07T06:42:19;3.00;99.90
23271;DHT22;11804;51.118;17.058;2022-12-07T06:44:48;3.00;99.90
23271;DHT22;11804;51.118;17.058;2022-12-07T06:47:15;3.00;99.90
23271;DHT22;11804;51.118;17.058;2022-12-07T06:49:43;3.00;99.90
23271;DHT22;11804;51.118;17.058;2022-12-07T06:52:12;3.00;99.90
23271;DHT22;11804;51.118;17.058;2022-12-07T06:54:41;3.00;99.90
23271;DHT22;11804;51.118;17.058;2022-12-07T06:57:10;3.00;99.90
23271;DHT22;11804;51.118;17.058;2022-12-07T06:59:42;3.00;99.90
23271;DHT22;11804;51.118;17.058;2022-12-07T07:02:33;3.00;99.90
23271;DHT22;11804;51.118;17.058;2022-12-07T07:04:57;3.10;99.90
23271;DHT22;11804;51.118;17.058;2022-12-07T07:07:22;3.10;99.90
23271;DHT22;11804;51.118;17.058;2022-12-07T07:09:55;3.10;99.90
23271;DHT22;11804;51.118;17.058;2022-12-07T07:12:22;3.00;99.90
23271;DHT22;11804;51.118;17.058;2022-12-07T07:14:52;3.00;99.90
23271;DHT22;11804;51.118;17.058;2022-12-07T07:17:19;3.00;99.90
23271;DHT22;11804;51.118;17.058;2022-12-07T07:19:53;3.00;99.90
23271;DHT22;11804;51.118;17.058;2022-12-07T07:22:28;3.00;99.90
23271;DHT22;11804;51.118;17.058;2022-12-07T07:24:51;3.00;99.90
23271;DHT22;11804;51.118;17.058;2022-12-07T07:27:22;3.00;99.90
23271;DHT22;11804;51.118;17.058;2022-12-07T07:29:50;3.00;99.90
23271;DHT22;11804;51.118;17.058;2022-12-07T07:32:17;3.10;99.90
23271;DHT22;11804;51.118;17.058;2022-12-07T07:35:06;3.10;99.90
23271;DHT22;11804;51.118;17.058;2022-12-07T07:37:23;3.10;99.90
23271;DHT22;11804;51.118;17.058;2022-12-07T07:39:51;3.20;99.90
23271;DHT22;11804;51.118;17.058;2022-12-07T07:42:18;3.20;99.90
23271;DHT22;11804;51.118;17.058;2022-12-07T07:44:46;3.30;99.90
23271;DHT22;11804;51.118;17.058;2022-12-07T07:47:14;3.50;99.90
23271;DHT22;11804;51.118;17.058;2022-12-07T07:49:44;3.60;99.90
23271;DHT22;11804;51.118;17.058;2022-12-07T07:52:20;3.70;99.90
23271;DHT22;11804;51.118;17.058;2022-12-07T07:54:50;3.70;99.90
23271;DHT22;11804;51.118;17.058;2022-12-07T07:57:17;3.60;99.90
23271;DHT22;11804;51.118;17.058;2022-12-07T07:59:47;3.60;99.90
23271;DHT22;11804;51.118;17.058;2022-12-07T08:02:18;3.50;99.90
23271;DHT22;11804;51.118;17.058;2022-12-07T08:04:46;3.50;99.90
23271;DHT22;11804;51.118;17.058;2022-12-07T08:07:15;3.50;99.90
23271;DHT22;11804;51.118;17.058;2022-12-07T08:09:48;3.50;99.90
23271;DHT22;11804;51.118;17.058;2022-12-07T08:12:16;3.50;99.90
23271;DHT22;11804;51.118;17.058;2022-12-07T08:14:43;3.40;99.90
23271;DHT22;11804;51.118;17.058;2022-12-07T08:17:11;3.30;99.90
23271;DHT22;11804;51.118;17.058;2022-12-07T08:19:39;3.40;99.90
23271;DHT22;11804;51.118;17.058;2022-12-07T08:22:07;3.50;99.90
23271;DHT22;11804;51.118;17.058;2022-12-07T08:24:37;3.50;99.90
23271;DHT22;11804;51.118;17.058;2022-12-07T08:27:07;3.60;99.90
23271;DHT22;11804;51.118;17.058;2022-12-07T08:29:33;3.60;99.90
23271;DHT22;11804;51.118;17.058;2022-12-07T08:32:01;3.60;99.90
23271;DHT22;11804;51.118;17.058;2022-12-07T08:34:28;3.60;99.90
23271;DHT22;11804;51.118;17.058;2022-12-07T08:36:56;3.50;99.90
23271;DHT22;11804;51.118;17.058;2022-12-07T08:39:24;3.60;99.90
23271;DHT22;11804;51.118;17.058;2022-12-07T08:41:52;3.70;99.90
23271;DHT22;11804;51.118;17.058;2022-12-07T08:44:29;3.70;99.90
23271;DHT22;11804;51.118;17.058;2022-12-07T08:47:02;3.80;99.90
23271;DHT22;11804;51.118;17.058;2022-12-07T08:52:23;3.80;99.90
23271;DHT22;11804;51.118;17.058;2022-12-07T08:54:50;3.80;99.90
23271;DHT22;11804;51.118;17.058;2022-12-07T08:57:18;3.90;99.90
23271;DHT22;11804;51.118;17.058;2022-12-07T08:59:46;4.00;99.90
23271;DHT22;11804;51.118;17.058;2022-12-07T09:02:14;4.10;99.90
23271;DHT22;11804;51.118;17.058;2022-12-07T09:04:42;4.10;99.90
23271;DHT22;11804;51.118;17.058;2022-12-07T09:07:16;4.40;99.90
23271;DHT22;11804;51.118;17.058;2022-12-07T09:09:44;4.50;99.90
23271;DHT22;11804;51.118;17.058;2022-12-07T09:12:11;4.60;99.90
23271;DHT22;11804;51.118;17.058;2022-12-07T09:14:39;4.60;99.90
23271;DHT22;11804;51.118;17.058;2022-12-07T09:17:12;4.60;99.90
23271;DHT22;11804;51.118;17.058;2022-12-07T09:20:15;4.60;99.90
23271;DHT22;11804;51.118;17.058;2022-12-07T09:22:26;4.60;99.90
23271;DHT22;11804;51.118;17.058;2022-12-07T09:24:51;4.80;99.90
23271;DHT22;11804;51.118;17.058;2022-12-07T09:27:30;4.90;99.90
23271;DHT22;11804;51.118;17.058;2022-12-07T09:29:58;5.00;99.90
23271;DHT22;11804;51.118;17.058;2022-12-07T09:32:26;5.20;99.90
23271;DHT22;11804;51.118;17.058;2022-12-07T09:37:36;5.60;99.90
23271;DHT22;11804;51.118;17.058;2022-12-07T09:40:05;5.70;99.90
23271;DHT22;11804;51.118;17.058;2022-12-07T09:48:36;5.50;99.90
23271;DHT22;11804;51.118;17.058;2022-12-07T09:56:56;5.00;99.90
23271;DHT22;11804;51.118;17.058;2022-12-07T09:59:30;5.00;99.90
23271;DHT22;11804;51.118;17.058;2022-12-07T10:02:48;4.90;99.90
23271;DHT22;11804;51.118;17.058;2022-12-07T10:04:40;4.90;99.90
23271;DHT22;11804;51.118;17.058;2022-12-07T10:07:15;4.90;99.90
23271;DHT22;11804;51.118;17.058;2022-12-07T10:09:42;5.10;99.90
23271;DHT22;11804;51.118;17.058;2022-12-07T10:12:11;5.20;99.90
23271;DHT22;11804;51.118;17.058;2022-12-07T10:14:54;5.30;99.90
23271;DHT22;11804;51.118;17.058;2022-12-07T10:17:41;5.30;99.90
23271;DHT22;11804;51.118;17.058;2022-12-07T10:23:00;5.20;99.90
23271;DHT22;11804;51.118;17.058;2022-12-07T10:25:36;5.20;99.90
23271;DHT22;11804;51.118;17.058;2022-12-07T10:28:16;5.10;99.90
23271;DHT22;11804;51.118;17.058;2022-12-07T10:31:15;5.00;99.90
23271;DHT22;11804;51.118;17.058;2022-12-07T10:40:36;4.80;99.90
23271;DHT22;11804;51.118;17.058;2022-12-07T10:43:58;4.70;99.90
23271;DHT22;11804;51.118;17.058;2022-12-07T10:45:36;4.60;99.90
23271;DHT22;11804;51.118;17.058;2022-12-07T10:54:10;4.70;99.90
23271;DHT22;11804;51.118;17.058;2022-12-07T10:56:52;4.70;99.90
23271;DHT22;11804;51.118;17.058;2022-12-07T10:59:36;4.70;99.90
23271;DHT22;11804;51.118;17.058;2022-12-07T11:04:43;4.60;99.90
23271;DHT22;11804;51.118;17.058;2022-12-07T11:07:22;4.60;99.90
23271;DHT22;11804;51.118;17.058;2022-12-07T11:09:58;4.50;99.90
23271;DHT22;11804;51.118;17.058;2022-12-07T11:24:40;4.30;99.90
23271;DHT22;11804;51.118;17.058;2022-12-07T11:27:16;4.30;99.90
23271;DHT22;11804;51.118;17.058;2022-12-07T11:30:17;4.30;99.90
23271;DHT22;11804;51.118;17.058;2022-12-07T11:39:54;4.40;99.90
23271;DHT22;11804;51.118;17.058;2022-12-07T11:51:56;4.30;99.90
23271;DHT22;11804;51.118;17.058;2022-12-07T11:54:25;4.30;99.90
23271;DHT22;11804;51.118;17.058;2022-12-07T11:56:59;4.30;99.90
23271;DHT22;11804;51.118;17.058;2022-12-07T12:05:13;4.30;99.90
23271;DHT22;11804;51.118;17.058;2022-12-07T12:08:34;4.30;99.90
23271;DHT22;11804;51.118;17.058;2022-12-07T12:23:59;4.20;99.90
23271;DHT22;11804;51.118;17.058;2022-12-07T12:26:32;4.30;99.90
23271;DHT22;11804;51.118;17.058;2022-12-07T12:29:31;4.40;99.90
23271;DHT22;11804;51.118;17.058;2022-12-07T12:31:41;4.40;99.90
23271;DHT22;11804;51.118;17.058;2022-12-07T12:45:35;4.60;99.90
23271;DHT22;11804;51.118;17.058;2022-12-07T12:56:38;4.60;99.90
23271;DHT22;11804;51.118;17.058;2022-12-07T12:59:33;4.60;99.90
23271;DHT22;11804;51.118;17.058;2022-12-07T13:18:36;4.40;99.90
23271;DHT22;11804;51.118;17.058;2022-12-07T13:26:41;4.40;99.90
23271;DHT22;11804;51.118;17.058;2022-12-07T13:31:53;4.40;99.90
23271;DHT22;11804;51.118;17.058;2022-12-07T13:34:40;4.40;99.90
23271;DHT22;11804;51.118;17.058;2022-12-07T13:40:18;4.40;99.90
23271;DHT22;11804;51.118;17.058;2022-12-07T13:42:46;4.40;99.90
23271;DHT22;11804;51.118;17.058;2022-12-07T13:45:59;4.40;99.90
23271;DHT22;11804;51.118;17.058;2022-12-07T13:51:37;4.40;99.90
23271;DHT22;11804;51.118;17.058;2022-12-07T13:56:52;4.40;99.90
23271;DHT22;11804;51.118;17.058;2022-12-07T14:02:52;4.30;99.90
23271;DHT22;11804;51.118;17.058;2022-12-07T14:05:13;4.30;99.90
23271;DHT22;11804;51.118;17.058;2022-12-07T14:07:56;4.30;99.90
23271;DHT22;11804;51.118;17.058;2022-12-07T14:10:33;4.30;99.90
23271;DHT22;11804;51.118;17.058;2022-12-07T14:13:50;4.30;99.90
23271;DHT22;11804;51.118;17.058;2022-12-07T14:15:38;4.30;99.90
23271;DHT22;11804;51.118;17.058;2022-12-07T14:18:24;4.30;99.90
23271;DHT22;11804;51.118;17.058;2022-12-07T14:20:45;4.30;99.90
23271;DHT22;11804;51.118;17.058;2022-12-07T14:23:25;4.30;99.90
23271;DHT22;11804;51.118;17.058;2022-12-07T14:26:03;4.20;99.90
23271;DHT22;11804;51.118;17.058;2022-12-07T14:28:33;4.20;99.90
23271;DHT22;11804;51.118;17.058;2022-12-07T14:31:17;4.20;99.90
23271;DHT22;11804;51.118;17.058;2022-12-07T14:36:31;4.20;99.90
23271;DHT22;11804;51.118;17.058;2022-12-07T14:38:59;4.10;99.90
23271;DHT22;11804;51.118;17.058;2022-12-07T14:41:27;4.10;99.90
23271;DHT22;11804;51.118;17.058;2022-12-07T14:44:17;4.10;99.90
23271;DHT22;11804;51.118;17.058;2022-12-07T14:46:41;4.00;99.90
23271;DHT22;11804;51.118;17.058;2022-12-07T14:49:39;4.00;99.90
23271;DHT22;11804;51.118;17.058;2022-12-07T14:51:59;4.00;99.90
23271;DHT22;11804;51.118;17.058;2022-12-07T14:54:31;3.90;99.90
23271;DHT22;11804;51.118;17.058;2022-12-07T14:59:42;3.90;99.90
23271;DHT22;11804;51.118;17.058;2022-12-07T15:02:22;3.80;99.90
23271;DHT22;11804;51.118;17.058;2022-12-07T15:05:02;3.80;99.90
23271;DHT22;11804;51.118;17.058;2022-12-07T15:07:41;3.80;99.90
23271;DHT22;11804;51.118;17.058;2022-12-07T15:10:04;3.90;99.90
23271;DHT22;11804;51.118;17.058;2022-12-07T15:12:39;3.80;99.90
23271;DHT22;11804;51.118;17.058;2022-12-07T15:15:13;3.80;99.90
23271;DHT22;11804;51.118;17.058;2022-12-07T15:17:41;3.80;99.90
23271;DHT22;11804;51.118;17.058;2022-12-07T15:20:13;3.80;99.90
23271;DHT22;11804;51.118;17.058;2022-12-07T15:22:48;3.80;99.90
23271;DHT22;11804;51.118;17.058;2022-12-07T15:25:18;3.70;99.90
23271;DHT22;11804;51.118;17.058;2022-12-07T15:27:53;3.70;99.90
23271;DHT22;11804;51.118;17.058;2022-12-07T15:30:21;3.70;99.90
23271;DHT22;11804;51.118;17.058;2022-12-07T15:32:53;3.70;99.90
23271;DHT22;11804;51.118;17.058;2022-12-07T15:35:27;3.60;99.90
23271;DHT22;11804;51.118;17.058;2022-12-07T15:37:58;3.60;99.90
23271;DHT22;11804;51.118;17.058;2022-12-07T15:40:31;3.60;99.90
23271;DHT22;11804;51.118;17.058;2022-12-07T15:43:11;3.60;99.90
23271;DHT22;11804;51.118;17.058;2022-12-07T15:46:04;3.60;99.90
23271;DHT22;11804;51.118;17.058;2022-12-07T15:48:49;3.60;99.90
23271;DHT22;11804;51.118;17.058;2022-12-07T15:51:20;3.70;99.90
23271;DHT22;11804;51.118;17.058;2022-12-07T15:53:54;3.70;99.90
23271;DHT22;11804;51.118;17.058;2022-12-07T15:56:21;3.70;99.90
23271;DHT22;11804;51.118;17.058;2022-12-07T15:58:50;3.60;99.90
23271;DHT22;11804;51.118;17.058;2022-12-07T16:01:19;3.60;99.90
23271;DHT22;11804;51.118;17.058;2022-12-07T16:03:47;3.60;99.90
23271;DHT22;11804;51.118;17.058;2022-12-07T16:06:18;3.50;99.90
23271;DHT22;11804;51.118;17.058;2022-12-07T16:08:46;3.60;99.90
23271;DHT22;11804;51.118;17.058;2022-12-07T16:11:14;3.60;99.90
23271;DHT22;11804;51.118;17.058;2022-12-07T16:13:47;3.60;99.90
23271;DHT22;11804;51.118;17.058;2022-12-07T16:16:14;3.60;99.90
23271;DHT22;11804;51.118;17.058;2022-12-07T16:18:46;3.60;99.90
23271;DHT22;11804;51.118;17.058;2022-12-07T16:21:14;3.70;99.90
23271;DHT22;11804;51.118;17.058;2022-12-07T16:23:42;3.70;99.90
23271;DHT22;11804;51.118;17.058;2022-12-07T16:26:20;3.70;99.90
23271;DHT22;11804;51.118;17.058;2022-12-07T16:28:44;3.70;99.90
23271;DHT22;11804;51.118;17.058;2022-12-07T16:31:14;3.60;99.90
23271;DHT22;11804;51.118;17.058;2022-12-07T16:33:43;3.60;99.90
23271;DHT22;11804;51.118;17.058;2022-12-07T16:36:12;3.60;99.90
23271;DHT22;11804;51.118;17.058;2022-12-07T16:38:42;3.60;99.90
23271;DHT22;11804;51.118;17.058;2022-12-07T16:41:10;3.50;99.90
23271;DHT22;11804;51.118;17.058;2022-12-07T16:43:38;3.50;99.90
23271;DHT22;11804;51.118;17.058;2022-12-07T16:46:08;3.50;99.90
23271;DHT22;11804;51.118;17.058;2022-12-07T16:48:37;3.40;99.90
23271;DHT22;11804;51.118;17.058;2022-12-07T16:51:06;3.40;99.90
23271;DHT22;11804;51.118;17.058;2022-12-07T16:53:37;3.40;99.90
23271;DHT22;11804;51.118;17.058;2022-12-07T16:56:15;3.40;99.90
23271;DHT22;11804;51.118;17.058;2022-12-07T16:58:49;3.40;99.90
23271;DHT22;11804;51.118;17.058;2022-12-07T17:01:19;3.40;99.90
23271;DHT22;11804;51.118;17.058;2022-12-07T17:03:48;3.40;99.90
23271;DHT22;11804;51.118;17.058;2022-12-07T17:06:18;3.40;99.90
23271;DHT22;11804;51.118;17.058;2022-12-07T17:08:48;3.40;99.90
23271;DHT22;11804;51.118;17.058;2022-12-07T17:11:20;3.30;99.90
23271;DHT22;11804;51.118;17.058;2022-12-07T17:13:49;3.30;99.90
23271;DHT22;11804;51.118;17.058;2022-12-07T17:16:34;3.30;99.90
23271;DHT22;11804;51.118;17.058;2022-12-07T17:19:07;3.30;99.90
23271;DHT22;11804;51.118;17.058;2022-12-07T17:21:35;3.20;99.90
23271;DHT22;11804;51.118;17.058;2022-12-07T17:24:06;3.20;99.90
23271;DHT22;11804;51.118;17.058;2022-12-07T17:26:36;3.20;99.90
23271;DHT22;11804;51.118;17.058;2022-12-07T17:29:05;3.20;99.90
23271;DHT22;11804;51.118;17.058;2022-12-07T17:31:34;3.10;99.90
23271;DHT22;11804;51.118;17.058;2022-12-07T17:34:02;3.10;99.90
23271;DHT22;11804;51.118;17.058;2022-12-07T17:36:31;3.10;99.90
23271;DHT22;11804;51.118;17.058;2022-12-07T17:38:59;3.00;99.90
23271;DHT22;11804;51.118;17.058;2022-12-07T17:41:29;3.00;99.90
23271;DHT22;11804;51.118;17.058;2022-12-07T17:44:16;2.90;99.90
23271;DHT22;11804;51.118;17.058;2022-12-07T17:46:48;2.90;99.90
23271;DHT22;11804;51.118;17.058;2022-12-07T17:49:16;2.90;99.90
23271;DHT22;11804;51.118;17.058;2022-12-07T17:51:44;2.80;99.90
23271;DHT22;11804;51.118;17.058;2022-12-07T17:54:29;2.80;99.90
23271;DHT22;11804;51.118;17.058;2022-12-07T17:56:59;2.80;99.90
23271;DHT22;11804;51.118;17.058;2022-12-07T17:59:27;2.80;99.90
23271;DHT22;11804;51.118;17.058;2022-12-07T18:01:55;2.80;99.90
23271;DHT22;11804;51.118;17.058;2022-12-07T18:04:24;2.80;99.90
23271;DHT22;11804;51.118;17.058;2022-12-07T18:06:52;2.80;99.90
23271;DHT22;11804;51.118;17.058;2022-12-07T18:09:20;2.70;99.90
23271;DHT22;11804;51.118;17.058;2022-12-07T18:11:49;2.70;99.90
23271;DHT22;11804;51.118;17.058;2022-12-07T18:14:21;2.70;99.90
23271;DHT22;11804;51.118;17.058;2022-12-07T18:16:45;2.70;99.90
23271;DHT22;11804;51.118;17.058;2022-12-07T18:19:15;2.70;99.90
23271;DHT22;11804;51.118;17.058;2022-12-07T18:21:43;2.70;99.90
23271;DHT22;11804;51.118;17.058;2022-12-07T18:24:12;2.60;99.90
23271;DHT22;11804;51.118;17.058;2022-12-07T18:26:41;2.60;99.90
23271;DHT22;11804;51.118;17.058;2022-12-07T18:29:12;2.60;99.90
23271;DHT22;11804;51.118;17.058;2022-12-07T18:31:41;2.60;99.90
23271;DHT22;11804;51.118;17.058;2022-12-07T18:34:11;2.60;99.90
23271;DHT22;11804;51.118;17.058;2022-12-07T18:36:41;2.60;99.90
23271;DHT22;11804;51.118;17.058;2022-12-07T18:39:09;2.50;99.90
23271;DHT22;11804;51.118;17.058;2022-12-07T18:41:38;2.50;99.90
23271;DHT22;11804;51.118;17.058;2022-12-07T18:44:06;2.50;99.90